Thursday, September 29, 2016, 6:05 AM EDT

KOXB, Ocean City Municipal Airport

Location: Berlin, MD, United States Lat: 38.317
Local Time: 6:05 AM EDT (10:05 GMT) Lon: -75.117
Time Zone: US/Eastern Elev: 13 ft

Show me the last for .
Show Decoded

2016-09-29 05:53 METAR KOXB 290953Z AUTO 10022G29KT 10SM VCTS RA FEW011 SCT080 OVC100 A3008 RMK
                 AO2 PK WND 10033/0925 LTG DSNT NE-S TSE34 SLP187 P0013 $ =
2016-09-29 05:40 METAR KOXB 290940Z AUTO 10022G30KT 10SM -RA FEW011 BKN075 OVC110 A3008 RMK AO2
                 PK WND 10033/0925 LTG DSNT NE-S TSE34 P0011 $ =
2016-09-29 05:14 METAR KOXB 290914Z AUTO 10019G30KT 10SM +TSRA SCT009 BKN043 OVC085 22/20 A3008
                 RMK AO2 PK WND 10030/0858 LTG DSNT NE-S P0007 T02170200 $ =
2016-09-29 04:53 METAR KOXB 290853Z AUTO 10020G32KT 10SM TSRA BKN009 OVC037 22/20 A3008 RMK AO2
                 PK WND 10032/0845 LTG DSNT ALQDS TSB07E24B31 PRESRR SLP186 P0016 60027 T02220200
                 53013 $ =
2016-09-29 04:37 METAR KOXB 290837Z AUTO 09023G31KT 10SM TSRA BKN009 OVC027 22/20 A3005 RMK AO2
                 PK WND 10031/0835 LTG DSNT ALQDS TSB07E24B31 P0011 T02170200 $ =
2016-09-29 04:30 METAR KOXB 290830Z AUTO 09022G31KT 10SM VCTS RA BKN009 OVC036 22/20 A3006 RMK
                 AO2 PK WND 10031/0821 LTG DSNT ALQDS TSB07E24 P0009 T02170200 $ =
2016-09-29 04:13 METAR KOXB 290813Z AUTO 09021G31KT 10SM TSRA BKN009 OVC045 22/20 A3007 RMK AO2
                 PK WND 09031/0800 LTG DSNT ALQDS TSB07 P0004 T02170200 $ =
2016-09-29 03:53 METAR KOXB 290753Z AUTO 09019G31KT 10SM VCTS RA OVC009 22/20 A3005 RMK AO2 PK
                 WND 10032/0734 LTG DSNT ALQDS TSE23 SLP177 P0011 T02170200 $ =
2016-09-29 03:29 METAR KOXB 290729Z AUTO 09022G29KT 10SM VCTS RA BKN009 OVC025 22/20 A3006 RMK
                 AO2 PK WND 10032/0708 LTG DSNT ALQDS TSE23 P0005 T02170200 $ =
2016-09-29 02:53 METAR KOXB 290653Z AUTO 09018G31KT 10SM -TSRA OVC009 22/20 A3007 RMK AO2 PK WND
                 08034/0635 LTG DSNT ALQDS RAB0557E07B30 TSB22E42B46 SLP181 P0000 T02220200 $ =
2016-09-29 02:28 METAR KOXB 290628Z AUTO 09021G30KT 10SM TS OVC009 22/20 A3005 RMK AO2 PK WND
                 09030/0620 LTG DSNT ALQDS RAB0557E07 TSB22 CIG 007V014 P0000 T02220200 $ =
2016-09-29 01:53 METAR KOXB 290553Z AUTO 09020G29KT 10SM VCTS OVC008 22/20 A3004 RMK AO2 PK WND
                 08030/0539 LTG DSNT ALQDS RAE10 CIG 008V012 SLP173 P0001 60001 T02220200 10228
                 20222 55008 $ =
2016-09-29 01:36 METAR KOXB 290536Z AUTO 09020G29KT 10SM OVC008 A3005 RMK AO2 PK WND 07030/0519
                 LTG DSNT SW-N RAE10 CIG 007V012 P0001 $ =
2016-09-29 01:21 METAR KOXB 290521Z AUTO 09019G30KT 10SM VCTS OVC008 A3005 RMK AO2 PK WND
                 07030/0519 LTG DSNT SW-N RAE10 P0001 $ =
2016-09-29 00:53 METAR KOXB 290453Z AUTO 09020G28KT 10SM -RA OVC008 22/20 A3004 RMK AO2 PK WND
                 09030/0443 LTG DSNT SW-N RAB53 SLP172 P0000 T02220200 402440200 $ =
2016-09-28 23:53 METAR KOXB 290353Z AUTO 09019G25KT 10SM OVC008 22/20 A3006 RMK AO2 PK WND
                 07026/0341 LTG DSNT W-N SLP180 T02220200 $ =
2016-09-28 22:53 METAR KOXB 290253Z AUTO 08018G28KT 10SM OVC008 22/20 A3007 RMK AO2 PK WND
                 08028/0250 LTG DSNT SW-N CIG 007V011 SLP181 T02220200 51009 $ =
2016-09-28 21:53 METAR KOXB 290153Z AUTO 08013G23KT 10SM OVC008 22/20 A3006 RMK AO2 SLP180
                 T02220200 $ =
2016-09-28 20:53 METAR KOXB 290053Z AUTO 08013KT 10SM OVC008 23/20 A3007 RMK AO2 LTG DSNT W AND
                 NW SLP182 T02280200 $ =
2016-09-28 19:53 METAR KOXB 282353Z AUTO 08014G21KT 10SM BKN009 OVC014 23/21 A3004 RMK AO2 SLP172
                 60008 T02280206 10244 20222 51006 $ =
2016-09-28 19:48 METAR KOXB 282348Z AUTO 08015G21KT 10SM BKN009 OVC016 23/21 A3004 RMK AO2 LTG
                 DSNT NW $ =
2016-09-28 19:32 METAR KOXB 282332Z AUTO 08013KT 10SM SCT009 OVC016 23/21 A3003 RMK AO2 LTG DSNT
                 NW T02280206 $ =
2016-09-28 18:53 METAR KOXB 282253Z AUTO 09011KT 10SM BKN008 OVC014 23/21 A3004 RMK AO2 CIG
                 006V010 SLP170 T02280206 $ =
2016-09-28 17:53 METAR KOXB 282153Z AUTO 08012KT 10SM OVC008 23/21 A3002 RMK AO2 CIG 007V013
                 SLP166 T02280206 =
2016-09-28 17:08 METAR KOXB 282108Z AUTO 08008KT 10SM BKN009 23/21 A3000 RMK AO2 T02280206 =
2016-09-28 16:53 METAR KOXB 282053Z AUTO 08011G20KT 10SM FEW009 23/20 A2999 RMK AO2 RAE1959
                 SLP154 P0000 60008 T02280200 58008 =
2016-09-28 15:53 METAR KOXB 281953Z AUTO 10012G19KT 10SM -RA FEW032 FEW049 OVC090 23/21 A2999 RMK
                 AO2 RAB03 PRESFR SLP156 P0008 T02330211 TSNO =
2016-09-28 15:16 METAR KOXB 281916Z AUTO 08010KT 10SM -RA SCT011 SCT018 OVC080 23/19 A3003 RMK
                 AO2 RAB03 P0001 T02280194 =
2016-09-28 14:53 METAR KOXB 281853Z AUTO 05009KT 10SM BKN011 OVC017 23/19 A3003 RMK AO2 SLP168
                 T02280194 TSNO =
2016-09-28 14:23 METAR KOXB 281823Z AUTO 08012G22KT 10SM BKN011 BKN017 23/19 A2999 RMK AO2
                 T02330194 TSNO =
2016-09-28 14:16 METAR KOXB 281816Z AUTO 07016KT 10SM SCT011 SCT017 24/19 A2999 RMK AO2 T02440194
                 TSNO =
2016-09-28 14:03 METAR KOXB 281803Z AUTO 08014KT 10SM SCT010 BKN017 24/20 A3001 RMK AO2 T02390200
                 TSNO =
2016-09-28 13:53 METAR KOXB 281753Z AUTO 07013G20KT 10SM FEW011 SCT017 24/19 A3001 RMK AO2 SLP162
                 T02390194 10244 20222 58001 TSNO =
2016-09-28 13:02 METAR KOXB 281702Z AUTO 06010KT 10SM SCT011 OVC018 23/19 A3003 RMK AO2 T02330194
                 TSNO =
2016-09-28 12:53 METAR KOXB 281653Z AUTO 05010KT 10SM BKN014 OVC019 23/19 A3003 RMK AO2 SLP168
                 T02330194 TSNO =
2016-09-28 12:24 METAR KOXB 281624Z AUTO 05007KT 10SM OVC015 24/20 A3003 RMK AO2 T02390200 TSNO =
2016-09-28 11:53 METAR KOXB 281553Z AUTO 06008KT 10SM OVC013 23/19 A3003 RMK AO2 SLP168 T02280194
                 TSNO =
2016-09-28 11:30 METAR KOXB 281530Z AUTO 09011KT 10SM OVC013 23/19 A3001 RMK AO2 T02280194 TSNO =
2016-09-28 10:53 METAR KOXB 281453Z AUTO 09011KT 10SM OVC016 23/19 A3002 RMK AO2 SLP163 T02280189
                 53011 TSNO =
2016-09-28 09:53 METAR KOXB 281353Z AUTO 08010KT 10SM OVC017 23/19 A2999 RMK AO2 SLP156 T02280189
                 TSNO =
2016-09-28 08:53 METAR KOXB 281253Z AUTO 08010KT 10SM BKN018 23/18 A2998 RMK AO2 SLP152 T02280183
                 TSNO =
2016-09-28 08:02 METAR KOXB 281202Z AUTO 06010KT 10SM BKN017 OVC024 22/18 A2998 RMK AO2 T02170183
                 TSNO =
2016-09-28 07:53 METAR KOXB 281153Z AUTO 05011KT 10SM BKN014 OVC021 22/19 A2998 RMK AO2 SLP153
                 70007 T02170189 53009 TSNO =
2016-09-28 06:53 METAR KOXB 281053Z AUTO 06009KT 10SM BKN017 OVC021 22/18 A2997 RMK AO2 SLP148
                 T02220183 TSNO $ =

Support USWX by starting your Amazon purchase here.